createdAt,value
2023-05-03T00:01:49.949Z,3.47
2023-05-03T00:04:18.391Z,4.10
2023-05-03T00:06:46.284Z,4.40
2023-05-03T00:09:14.649Z,3.67
2023-05-03T00:11:42.648Z,3.67
2023-05-03T00:14:11.793Z,4.67
2023-05-03T00:16:39.733Z,3.50
2023-05-03T00:19:10.677Z,3.90
2023-05-03T00:21:46.008Z,3.77
2023-05-03T00:24:13.790Z,3.83
2023-05-03T00:26:41.564Z,4.60
2023-05-03T00:29:10.693Z,3.43
2023-05-03T00:31:38.637Z,4.40
2023-05-03T00:34:06.606Z,3.87
2023-05-03T00:36:36.936Z,4.90
2023-05-03T00:39:04.972Z,4.07
2023-05-03T00:41:32.736Z,4.00
2023-05-03T00:44:00.533Z,3.87
2023-05-03T00:46:30.619Z,4.83
2023-05-03T00:48:58.800Z,3.50
2023-05-03T00:51:28.672Z,3.33
2023-05-03T00:53:57.212Z,2.63
2023-05-03T00:56:25.134Z,3.07
2023-05-03T00:58:53.004Z,3.47
2023-05-03T01:01:21.336Z,2.97
2023-05-03T01:03:50.692Z,3.80
2023-05-03T01:06:27.446Z,3.03
2023-05-03T01:09:00.727Z,3.87
2023-05-03T01:11:38.775Z,3.77
2023-05-03T01:14:13.363Z,3.80
2023-05-03T01:16:45.518Z,4.17
2023-05-03T01:19:24.664Z,3.90
2023-05-03T01:22:00.812Z,3.57
2023-05-03T01:24:32.179Z,3.10
2023-05-03T01:27:01.334Z,3.57
2023-05-03T01:29:29.081Z,2.80
2023-05-03T01:32:01.536Z,2.53
2023-05-03T01:34:34.635Z,3.00
2023-05-03T01:37:04.050Z,2.47
2023-05-03T01:39:36.954Z,2.47
2023-05-03T01:42:07.064Z,3.60
2023-05-03T01:44:35.965Z,2.83
2023-05-03T01:47:04.231Z,3.37
2023-05-03T01:49:32.032Z,3.57
2023-05-03T01:51:59.816Z,4.23
2023-05-03T01:54:27.601Z,4.03
2023-05-03T01:56:55.388Z,3.73
2023-05-03T01:59:24.551Z,4.90
2023-05-03T02:01:52.307Z,4.33
2023-05-03T02:04:20.128Z,4.47
2023-05-03T02:06:48.008Z,3.93
2023-05-03T02:09:16.361Z,4.40
2023-05-03T02:11:44.441Z,4.07
2023-05-03T02:14:12.805Z,3.87
2023-05-03T02:16:42.112Z,4.40
2023-05-03T02:19:11.019Z,4.87
2023-05-03T02:21:39.067Z,5.20
2023-05-03T02:24:07.485Z,5.00
2023-05-03T02:26:35.610Z,5.03
2023-05-03T02:29:03.787Z,4.60
2023-05-03T02:31:31.712Z,4.73
2023-05-03T02:34:00.978Z,4.50
2023-05-03T02:36:28.806Z,4.60
2023-05-03T02:38:56.589Z,4.70
2023-05-03T02:41:24.483Z,5.03
2023-05-03T02:43:52.237Z,4.77
2023-05-03T02:46:20.505Z,3.90
2023-05-03T02:48:48.306Z,4.60
2023-05-03T02:51:17.507Z,4.50
2023-05-03T02:53:45.924Z,4.77
2023-05-03T02:56:13.698Z,4.80
2023-05-03T02:58:41.458Z,4.40
2023-05-03T03:01:09.251Z,5.90
2023-05-03T03:03:37.144Z,4.20
2023-05-03T03:06:05.827Z,4.60
2023-05-03T03:08:34.913Z,4.70
2023-05-03T03:11:02.705Z,4.10
2023-05-03T03:13:30.509Z,4.50
2023-05-03T03:15:58.270Z,3.93
2023-05-03T03:18:26.054Z,4.97
2023-05-03T03:20:56.799Z,4.33
2023-05-03T03:23:24.616Z,5.03
2023-05-03T03:25:54.093Z,5.10
2023-05-03T03:28:21.913Z,5.40
2023-05-03T03:30:49.773Z,4.90
2023-05-03T03:33:17.571Z,4.17
2023-05-03T03:35:45.792Z,4.40
2023-05-03T03:38:13.594Z,4.10
2023-05-03T03:40:41.431Z,4.83
2023-05-03T03:43:11.071Z,4.20
2023-05-03T03:45:39.147Z,4.47
2023-05-03T03:48:07.378Z,4.30
2023-05-03T03:50:35.312Z,4.10
2023-05-03T03:53:03.359Z,4.23
2023-05-03T03:55:31.226Z,4.40
2023-05-03T03:57:59.048Z,4.90
2023-05-03T04:00:28.439Z,5.00
2023-05-03T04:02:56.485Z,4.50
2023-05-03T04:05:24.292Z,4.63
2023-05-03T04:07:52.220Z,5.30
2023-05-03T04:10:19.999Z,5.17
2023-05-03T04:12:47.824Z,4.03
2023-05-03T04:15:15.606Z,4.40
2023-05-03T04:17:44.745Z,4.80
2023-05-03T04:20:14.035Z,4.40
2023-05-03T04:22:41.937Z,5.30
2023-05-03T04:25:13.943Z,4.60
2023-05-03T04:27:42.499Z,4.37
2023-05-03T04:30:11.836Z,4.60
2023-05-03T04:32:40.426Z,4.10
2023-05-03T04:35:12.239Z,4.77
2023-05-03T04:37:41.779Z,5.40
2023-05-03T04:40:12.233Z,5.90
2023-05-03T04:42:43.630Z,6.20
2023-05-03T04:45:12.072Z,7.30
2023-05-03T04:47:40.185Z,6.90
2023-05-03T04:50:10.947Z,6.00
2023-05-03T04:52:38.757Z,6.20
2023-05-03T04:55:07.251Z,6.00
2023-05-03T04:57:35.635Z,6.40
2023-05-03T05:00:04.547Z,7.47
2023-05-03T05:02:32.695Z,6.40
2023-05-03T05:05:00.589Z,7.83
2023-05-03T05:07:29.959Z,8.17
2023-05-03T05:09:57.751Z,7.43
2023-05-03T05:12:25.720Z,7.10
2023-05-03T05:14:53.534Z,7.20
2023-05-03T05:17:21.765Z,7.80
2023-05-03T05:19:49.534Z,7.50
2023-05-03T05:22:17.490Z,9.37
2023-05-03T05:24:46.642Z,7.60
2023-05-03T05:27:14.462Z,7.97
2023-05-03T05:29:42.288Z,8.77
2023-05-03T05:32:10.179Z,7.07
2023-05-03T05:34:45.667Z,8.27
2023-05-03T05:37:13.679Z,7.90
2023-05-03T05:39:41.426Z,7.93
2023-05-03T05:42:10.556Z,6.30
2023-05-03T05:44:38.332Z,7.63
2023-05-03T05:47:08.759Z,8.80
2023-05-03T05:49:36.874Z,7.87
2023-05-03T05:52:04.666Z,9.10
2023-05-03T05:54:32.497Z,8.00
2023-05-03T05:57:00.829Z,9.47
2023-05-03T05:59:31.371Z,9.13
2023-05-03T06:02:00.244Z,8.17
2023-05-03T06:04:28.798Z,8.13
2023-05-03T06:06:56.646Z,8.80
2023-05-03T06:09:25.212Z,8.60
2023-05-03T06:11:53.252Z,7.87
2023-05-03T06:14:21.076Z,9.60
2023-05-03T06:16:50.746Z,8.10
2023-05-03T06:19:18.585Z,8.53
2023-05-03T06:21:46.355Z,7.40
2023-05-03T06:24:14.820Z,9.43
2023-05-03T06:26:42.548Z,8.33
2023-05-03T06:29:10.484Z,8.50
2023-05-03T06:31:38.380Z,9.60
2023-05-03T06:34:09.803Z,9.87
2023-05-03T06:36:38.165Z,9.40
2023-05-03T06:39:06.113Z,10.10
2023-05-03T06:41:33.914Z,8.67
2023-05-03T06:44:01.725Z,9.87
2023-05-03T06:46:29.548Z,10.13
2023-05-03T06:48:57.663Z,10.13
2023-05-03T06:51:29.539Z,10.40
2023-05-03T06:53:57.746Z,9.63
2023-05-03T06:56:25.631Z,9.80
2023-05-03T06:58:54.156Z,9.17
2023-05-03T07:01:23.169Z,10.93
2023-05-03T07:03:51.028Z,10.20
2023-05-03T07:06:19.061Z,9.33
2023-05-03T07:08:48.214Z,10.73
2023-05-03T07:11:16.061Z,10.57
2023-05-03T07:13:43.774Z,9.57
2023-05-03T07:16:11.611Z,11.30
2023-05-03T07:18:39.384Z,12.07
2023-05-03T07:21:09.216Z,11.67
2023-05-03T07:23:37.312Z,11.70
2023-05-03T07:26:06.660Z,13.20
2023-05-03T07:28:34.431Z,13.40
2023-05-03T07:31:03.345Z,13.13
2023-05-03T07:33:31.912Z,12.80
2023-05-03T07:35:59.784Z,14.27
2023-05-03T07:38:27.537Z,14.50
2023-05-03T07:40:55.780Z,12.90
2023-05-03T07:43:24.926Z,14.67
2023-05-03T07:45:52.880Z,14.50
2023-05-03T07:48:20.663Z,15.17
2023-05-03T07:50:48.548Z,13.93
2023-05-03T07:53:16.322Z,14.00
2023-05-03T07:55:44.074Z,14.67
2023-05-03T07:58:11.962Z,14.70
2023-05-03T08:00:41.079Z,14.17
2023-05-03T08:03:09.133Z,12.23
2023-05-03T08:05:37.576Z,16.37
2023-05-03T08:08:05.795Z,16.63
2023-05-03T08:10:37.626Z,15.57
2023-05-03T08:13:06.491Z,14.40
2023-05-03T08:15:34.492Z,15.27
2023-05-03T08:18:03.704Z,15.33
2023-05-03T08:20:31.602Z,15.20
2023-05-03T08:22:59.382Z,15.20
2023-05-03T08:25:28.198Z,16.37
2023-05-03T08:27:56.064Z,15.77
2023-05-03T08:30:23.840Z,15.43
2023-05-03T08:32:51.692Z,15.27
2023-05-03T08:35:21.086Z,14.87
2023-05-03T08:37:48.854Z,18.37
2023-05-03T08:40:16.620Z,16.47
2023-05-03T08:42:45.511Z,17.97
2023-05-03T08:45:15.809Z,16.10
2023-05-03T08:47:44.825Z,16.83
2023-05-03T08:50:14.408Z,17.00
2023-05-03T08:52:44.444Z,16.87
2023-05-03T08:55:12.672Z,16.60
2023-05-03T08:57:41.182Z,16.70
2023-05-03T09:00:11.120Z,19.00
2023-05-03T09:02:40.250Z,19.37
2023-05-03T09:05:36.250Z,18.87
2023-05-03T09:08:07.490Z,17.23
2023-05-03T09:10:38.885Z,18.47
2023-05-03T09:13:07.780Z,18.17
2023-05-03T09:15:36.479Z,17.67
2023-05-03T09:18:12.515Z,18.63
2023-05-03T09:20:41.800Z,16.80
2023-05-03T09:23:11.471Z,16.60
2023-05-03T09:25:46.857Z,15.90
2023-05-03T09:28:15.443Z,19.23
2023-05-03T09:30:43.708Z,17.23
2023-05-03T09:33:12.365Z,18.13
2023-05-03T09:35:56.296Z,16.40
2023-05-03T09:38:29.442Z,17.27
2023-05-03T09:40:57.577Z,16.13
2023-05-03T09:43:25.448Z,18.00
2023-05-03T09:45:53.273Z,18.07
2023-05-03T09:48:23.443Z,17.37
2023-05-03T09:50:51.958Z,17.73
2023-05-03T09:53:22.314Z,18.20
2023-05-03T09:55:52.674Z,18.30
2023-05-03T09:58:21.688Z,18.77
2023-05-03T10:00:52.514Z,19.07
2023-05-03T10:03:25.485Z,17.57
2023-05-03T10:05:54.363Z,20.80
2023-05-03T10:08:28.561Z,20.43
2023-05-03T10:10:57.787Z,18.00
2023-05-03T10:13:25.967Z,18.07
2023-05-03T10:15:58.940Z,16.57
2023-05-03T10:18:30.155Z,19.57
2023-05-03T10:21:02.075Z,18.83
2023-05-03T10:23:29.816Z,19.17
2023-05-03T10:26:17.532Z,20.25
2023-05-03T10:28:46.212Z,18.10
2023-05-03T10:31:55.655Z,19.27
2023-05-03T10:34:25.230Z,19.77
2023-05-03T10:36:54.208Z,19.90
2023-05-03T10:39:22.392Z,19.73
2023-05-03T10:42:03.167Z,21.57
2023-05-03T10:44:39.066Z,20.00
2023-05-03T10:47:13.458Z,22.33
2023-05-03T10:49:41.411Z,18.73
2023-05-03T10:52:46.207Z,19.57
2023-05-03T10:55:15.405Z,21.23
2023-05-03T10:57:46.696Z,20.00
2023-05-03T11:00:17.371Z,18.37
2023-05-03T11:03:10.713Z,17.43
2023-05-03T11:05:39.116Z,18.57
2023-05-03T11:08:14.420Z,18.93
2023-05-03T11:10:42.718Z,20.43
2023-05-03T11:13:12.065Z,18.67
2023-05-03T11:15:40.218Z,20.17
2023-05-03T11:18:08.519Z,20.57
2023-05-03T11:20:36.932Z,19.57
2023-05-03T11:23:05.424Z,17.87
2023-05-03T11:25:33.910Z,18.70
2023-05-03T11:28:02.509Z,18.13
2023-05-03T11:30:34.984Z,17.33
2023-05-03T11:33:03.285Z,17.67
2023-05-03T11:35:31.853Z,17.37
2023-05-03T11:37:59.696Z,15.43
2023-05-03T11:40:27.676Z,16.40
2023-05-03T11:42:56.300Z,16.73
2023-05-03T11:45:25.638Z,18.10
2023-05-03T11:47:55.184Z,16.27
2023-05-03T11:50:29.088Z,14.80
2023-05-03T11:52:58.193Z,15.50
2023-05-03T11:55:27.038Z,16.00
2023-05-03T11:57:54.876Z,15.47
2023-05-03T12:00:23.600Z,12.43
2023-05-03T12:02:52.060Z,15.13
2023-05-03T12:05:25.206Z,15.30
2023-05-03T12:07:53.611Z,14.87
2023-05-03T12:10:25.639Z,16.60
2023-05-03T12:13:00.276Z,12.90
2023-05-03T12:15:30.717Z,12.60
2023-05-03T12:18:00.647Z,14.32
2023-05-03T12:23:04.660Z,13.53
2023-05-03T12:25:34.893Z,13.30
2023-05-03T12:30:40.134Z,12.53
2023-05-03T12:33:10.391Z,13.13
2023-05-03T12:35:41.001Z,11.67
2023-05-03T12:38:10.186Z,9.77
2023-05-03T12:40:40.740Z,7.40
2023-05-03T12:43:09.226Z,8.73
2023-05-03T12:45:40.236Z,8.90
2023-05-03T12:48:09.176Z,6.77
2023-05-03T12:50:39.658Z,9.33
2023-05-03T12:53:09.715Z,7.97
2023-05-03T12:55:42.523Z,8.60
2023-05-03T12:58:43.162Z,7.57
2023-05-03T13:03:33.810Z,9.67
2023-05-03T13:06:12.596Z,8.23
2023-05-03T13:08:49.634Z,8.53
2023-05-03T13:11:18.950Z,8.80
2023-05-03T13:13:46.956Z,9.10
2023-05-03T13:16:14.920Z,9.27
2023-05-03T13:18:43.058Z,8.33
2023-05-03T13:21:12.656Z,7.03
2023-05-03T13:23:40.371Z,8.80
2023-05-03T13:26:08.372Z,8.57
2023-05-03T13:28:36.154Z,8.73
2023-05-03T13:31:04.341Z,8.77
2023-05-03T13:33:32.118Z,8.53
2023-05-03T13:35:59.857Z,8.20
2023-05-03T13:38:29.022Z,8.47
2023-05-03T13:40:56.875Z,9.17
2023-05-03T13:43:24.780Z,8.03
2023-05-03T13:45:52.950Z,8.70
2023-05-03T13:48:21.446Z,8.33
2023-05-03T13:50:49.240Z,8.13
2023-05-03T13:53:17.349Z,5.87
2023-05-03T13:55:46.535Z,7.10
2023-05-03T13:58:14.333Z,6.80
2023-05-03T14:00:42.090Z,6.10
2023-05-03T14:03:09.963Z,5.53
2023-05-03T14:05:37.943Z,5.27
2023-05-03T14:08:06.265Z,3.93
2023-05-03T14:10:35.736Z,3.63
2023-05-03T14:13:05.101Z,4.90
2023-05-03T14:15:33.025Z,3.63
2023-05-03T14:18:03.981Z,3.60
2023-05-03T14:20:35.144Z,3.50
2023-05-03T14:23:03.728Z,2.97
2023-05-03T14:25:31.712Z,3.87
2023-05-03T14:27:59.621Z,3.83
2023-05-03T14:30:28.852Z,3.80
2023-05-03T14:32:56.674Z,3.17
2023-05-03T14:35:24.799Z,2.50
2023-05-03T14:38:00.246Z,3.10
2023-05-03T14:40:28.127Z,3.00
2023-05-03T14:42:55.875Z,2.60
2023-05-03T14:45:23.657Z,3.03
2023-05-03T14:47:52.961Z,3.20
2023-05-03T14:50:20.813Z,3.07
2023-05-03T14:52:48.768Z,4.00
2023-05-03T14:55:17.253Z,3.73
2023-05-03T14:57:45.104Z,3.23
2023-05-03T15:00:15.032Z,4.30
2023-05-03T15:02:46.638Z,4.53
2023-05-03T15:05:15.827Z,4.43
2023-05-03T15:07:43.681Z,3.17
2023-05-03T15:10:11.779Z,3.40
2023-05-03T15:12:39.972Z,3.67
2023-05-03T15:15:09.603Z,3.17
2023-05-03T15:17:37.394Z,3.43
2023-05-03T15:20:06.545Z,3.77
2023-05-03T15:22:36.957Z,3.30
2023-05-03T15:25:05.810Z,3.50
2023-05-03T15:27:33.853Z,3.73
2023-05-03T15:30:01.833Z,3.33
2023-05-03T15:32:29.815Z,4.30
2023-05-03T15:34:58.754Z,4.80
2023-05-03T15:37:36.932Z,4.13
2023-05-03T15:40:05.889Z,4.00
2023-05-03T15:42:33.839Z,3.97
2023-05-03T15:45:01.649Z,3.90
2023-05-03T15:47:29.410Z,3.53
2023-05-03T15:49:58.505Z,3.73
2023-05-03T15:52:26.330Z,3.43
2023-05-03T15:54:56.147Z,4.00
2023-05-03T15:57:24.391Z,3.90
2023-05-03T15:59:54.019Z,3.47
2023-05-03T16:02:21.906Z,3.80
2023-05-03T16:04:50.927Z,2.90
2023-05-03T16:07:19.047Z,4.60
2023-05-03T16:09:47.089Z,4.07
2023-05-03T16:12:16.806Z,4.03
2023-05-03T16:14:44.674Z,5.50
2023-05-03T16:17:12.455Z,4.20
2023-05-03T16:19:40.268Z,4.40
2023-05-03T16:22:08.014Z,5.00
2023-05-03T16:24:36.131Z,4.60
2023-05-03T16:27:03.905Z,4.70
2023-05-03T16:29:34.395Z,4.27
2023-05-03T16:32:04.003Z,3.43
2023-05-03T16:34:32.038Z,3.83
2023-05-03T16:37:00.661Z,4.17
2023-05-03T16:39:28.464Z,4.43
2023-05-03T16:41:56.222Z,3.70
2023-05-03T16:44:24.936Z,3.03
2023-05-03T16:46:54.062Z,3.93
2023-05-03T16:49:22.032Z,3.93
2023-05-03T16:51:49.768Z,3.30
2023-05-03T16:54:17.541Z,4.03
2023-05-03T16:56:45.497Z,3.80
2023-05-03T16:59:13.227Z,3.60
2023-05-03T17:01:41.196Z,3.57
2023-05-03T17:04:11.006Z,4.17
2023-05-03T17:06:39.237Z,4.57
2023-05-03T17:09:07.018Z,3.93
2023-05-03T17:11:36.003Z,4.10
2023-05-03T17:14:04.011Z,4.40
2023-05-03T17:16:31.791Z,3.80
2023-05-03T17:18:59.594Z,3.77
2023-05-03T17:21:28.693Z,4.57
2023-05-03T17:23:56.490Z,3.50
2023-05-03T17:26:24.224Z,4.10
2023-05-03T17:28:52.140Z,4.00
2023-05-03T17:31:19.906Z,4.10
2023-05-03T17:33:47.658Z,3.90
2023-05-03T17:36:15.452Z,3.13
2023-05-03T17:38:44.574Z,3.60
2023-05-03T17:41:12.400Z,3.53
2023-05-03T17:43:41.419Z,3.20
2023-05-03T17:46:11.025Z,3.20
2023-05-03T17:48:40.222Z,3.80
2023-05-03T17:51:09.516Z,3.20
2023-05-03T17:53:37.230Z,3.27
2023-05-03T17:56:12.900Z,2.80
2023-05-03T17:58:41.089Z,2.90
2023-05-03T18:01:10.712Z,3.40
2023-05-03T18:03:38.812Z,2.50
2023-05-03T18:06:09.448Z,3.00
2023-05-03T18:08:37.381Z,2.80
2023-05-03T18:11:06.539Z,2.90
2023-05-03T18:13:34.320Z,3.10
2023-05-03T18:16:02.217Z,3.30
2023-05-03T18:18:29.984Z,3.00
2023-05-03T18:21:01.379Z,3.07
2023-05-03T18:23:30.156Z,2.77
2023-05-03T18:25:57.971Z,2.80
2023-05-03T18:28:27.372Z,3.30
2023-05-03T18:30:56.221Z,3.30
2023-05-03T18:33:24.216Z,3.53
2023-05-03T18:35:53.421Z,3.20
2023-05-03T18:38:21.725Z,3.30
2023-05-03T18:40:50.329Z,2.83
2023-05-03T18:43:18.454Z,3.00
2023-05-03T18:45:47.724Z,3.53
2023-05-03T18:48:15.557Z,3.03
2023-05-03T18:50:44.040Z,3.03
2023-05-03T18:53:11.986Z,3.20
2023-05-03T18:55:39.925Z,2.90
2023-05-03T18:58:07.697Z,4.00
2023-05-03T19:00:35.449Z,3.80
2023-05-03T19:03:05.804Z,5.20
2023-05-03T19:05:33.654Z,5.57
2023-05-03T19:08:01.472Z,4.47
2023-05-03T19:10:29.194Z,6.10
2023-05-03T19:12:57.269Z,6.10
2023-05-03T19:15:25.233Z,5.57
2023-05-03T19:17:53.070Z,6.20
2023-05-03T19:20:22.310Z,6.37
2023-05-03T19:22:50.283Z,6.10
2023-05-03T19:25:18.204Z,6.23
2023-05-03T19:27:46.059Z,6.60
2023-05-03T19:30:14.502Z,6.47
2023-05-03T19:32:42.292Z,6.70
2023-05-03T19:35:10.482Z,7.07
2023-05-03T19:37:39.598Z,7.20
2023-05-03T19:40:08.587Z,7.63
2023-05-03T19:42:36.378Z,7.50
2023-05-03T19:45:04.430Z,7.50
2023-05-03T19:47:32.872Z,7.30
2023-05-03T19:50:00.705Z,7.40
2023-05-03T19:52:28.462Z,7.07
2023-05-03T19:54:58.454Z,7.50
2023-05-03T19:57:26.520Z,7.53
2023-05-03T19:59:54.297Z,8.00
2023-05-03T20:02:24.149Z,7.37
2023-05-03T20:04:52.730Z,8.70
2023-05-03T20:07:20.491Z,7.43
2023-05-03T20:09:48.221Z,8.20
2023-05-03T20:12:17.467Z,8.00
2023-05-03T20:14:45.973Z,7.03
2023-05-03T20:17:14.298Z,7.00
2023-05-03T20:19:42.238Z,7.47
2023-05-03T20:22:10.035Z,8.30
2023-05-03T20:24:37.788Z,7.63
2023-05-03T20:27:05.524Z,7.80
2023-05-03T20:29:35.196Z,8.57
2023-05-03T20:32:03.494Z,8.50
2023-05-03T20:34:31.328Z,9.77
2023-05-03T20:36:59.148Z,8.40
2023-05-03T20:39:27.147Z,7.53
2023-05-03T20:41:54.906Z,9.23
2023-05-03T20:44:22.686Z,8.53
2023-05-03T20:46:51.828Z,8.67
2023-05-03T20:49:19.602Z,7.37
2023-05-03T20:51:48.074Z,8.07
2023-05-03T20:54:16.251Z,8.20
2023-05-03T20:56:43.974Z,7.47
2023-05-03T20:59:11.745Z,8.90
2023-05-03T21:01:40.889Z,8.33
2023-05-03T21:04:10.087Z,8.20
2023-05-03T21:06:38.210Z,7.50
2023-05-03T21:09:06.092Z,8.20
2023-05-03T21:11:33.927Z,8.07
2023-05-03T21:14:02.179Z,7.23
2023-05-03T21:16:30.065Z,8.10
2023-05-03T21:18:57.807Z,8.40
2023-05-03T21:21:26.998Z,8.10
2023-05-03T21:23:54.798Z,8.20
2023-05-03T21:26:22.804Z,8.53
2023-05-03T21:28:50.742Z,8.47
2023-05-03T21:31:18.532Z,8.80
2023-05-03T21:33:46.297Z,8.00
2023-05-03T21:36:14.244Z,8.80
2023-05-03T21:38:43.379Z,7.70
2023-05-03T21:41:11.196Z,8.30
2023-05-03T21:43:39.013Z,8.40
2023-05-03T21:46:08.031Z,7.27
2023-05-03T21:48:36.435Z,8.03
2023-05-03T21:51:04.454Z,8.53
2023-05-03T21:53:33.296Z,7.80
2023-05-03T21:56:02.392Z,7.57
2023-05-03T21:58:30.512Z,8.03
2023-05-03T22:00:58.343Z,7.93
2023-05-03T22:03:26.153Z,8.20
2023-05-03T22:05:53.987Z,7.77
2023-05-03T22:08:22.811Z,7.87
2023-05-03T22:10:50.576Z,8.07
2023-05-03T22:13:19.819Z,7.97
2023-05-03T22:15:47.662Z,8.43
2023-05-03T22:18:16.224Z,8.50
2023-05-03T22:20:43.999Z,8.37
2023-05-03T22:23:12.304Z,8.23
2023-05-03T22:25:40.047Z,9.73
2023-05-03T22:28:08.058Z,7.90
2023-05-03T22:30:37.163Z,8.67
2023-05-03T22:33:05.056Z,7.00
2023-05-03T22:35:32.858Z,8.70
2023-05-03T22:38:00.726Z,7.30
2023-05-03T22:40:28.523Z,8.00
2023-05-03T22:42:56.328Z,9.30
2023-05-03T22:45:24.166Z,8.97
2023-05-03T22:47:53.341Z,8.43
2023-05-03T22:50:21.178Z,7.90
2023-05-03T22:52:49.242Z,7.00
2023-05-03T22:55:17.173Z,8.20
2023-05-03T22:57:44.915Z,7.33
2023-05-03T23:02:48.460Z,9.00
2023-05-03T23:05:17.759Z,8.40
2023-05-03T23:07:45.566Z,7.27
2023-05-03T23:10:13.648Z,9.40
2023-05-03T23:12:41.424Z,9.07
2023-05-03T23:15:10.276Z,8.10
2023-05-03T23:17:38.108Z,9.00
2023-05-03T23:20:06.858Z,7.60
2023-05-03T23:22:36.099Z,7.87
2023-05-03T23:25:03.968Z,8.50
2023-05-03T23:27:31.777Z,8.60
2023-05-03T23:30:00.159Z,7.87
2023-05-03T23:32:28.612Z,8.63
2023-05-03T23:34:57.757Z,7.90
2023-05-03T23:37:25.543Z,8.37
2023-05-03T23:39:54.606Z,8.90
2023-05-03T23:42:22.388Z,8.73
2023-05-03T23:44:55.019Z,8.03
2023-05-03T23:47:23.706Z,8.87
2023-05-03T23:49:51.972Z,7.80
2023-05-03T23:52:20.341Z,8.73
2023-05-03T23:54:48.230Z,8.80
2023-05-03T23:57:17.364Z,10.67
2023-05-03T23:59:45.155Z,8.87
